Time;durP1;ratioP1;P1;durP2;ratioP2;P2;SDS_P1;SDS_P2;PMS_P1;PMS_P2;Temp;Humidity;BMP_temperature;BMP_pressure;BME280_temperature;BME280_humidity;BME280_pressure;Samples;Min_cycle;Max_cycle;Signal;HPM_P1;HPM_P2
2022/04/03 00:00:10;;;;;;;5.65;3.80;;;;;;;0.27;85.77;101331.59;693690;28;1628;-77
2022/04/03 00:00:31;;;;;;;5.63;3.80;;;;;;;0.25;86.33;101331.50;693659;28;1705;-77
2022/04/03 00:00:53;;;;;;;5.82;3.67;;;;;;;0.26;85.57;101338.41;690506;28;1409;-77
2022/04/03 00:01:13;;;;;;;6.22;3.60;;;;;;;0.27;86.53;101334.16;690315;28;4281;-77
2022/04/03 00:01:33;;;;;;;6.72;3.92;;;;;;;0.26;86.01;101342.66;691062;28;1060;-77
2022/04/03 00:01:54;;;;;;;5.93;4.00;;;;;;;0.25;87.06;101341.78;689270;28;1261;-77
2022/04/03 00:02:15;;;;;;;6.22;3.94;;;;;;;0.28;87.34;101335.94;692576;28;1264;-77
2022/04/03 00:02:36;;;;;;;6.30;4.00;;;;;;;0.28;87.11;101344.50;694713;28;1668;-77
2022/04/03 00:02:56;;;;;;;6.07;3.85;;;;;;;0.28;86.10;101334.22;697350;28;1401;-77
2022/04/03 00:03:18;;;;;;;6.17;4.20;;;;;;;0.29;87.73;101348.84;701702;28;1276;-76
2022/04/03 00:03:39;;;;;;;6.20;4.10;;;;;;;0.29;86.08;101337.66;700887;27;1466;-77
2022/04/03 00:04:00;;;;;;;6.28;4.00;;;;;;;0.29;86.55;101336.00;700022;28;4531;-77
2022/04/03 00:04:20;;;;;;;6.13;3.87;;;;;;;0.27;85.28;101337.59;701691;28;1519;-77
2022/04/03 00:04:40;;;;;;;5.47;3.63;;;;;;;0.27;85.43;101340.16;698418;28;1766;-77
2022/04/03 00:05:01;;;;;;;5.30;3.57;;;;;;;0.28;85.46;101341.06;698884;28;1496;-77
2022/04/03 00:05:21;;;;;;;6.25;3.75;;;;;;;0.26;85.14;101338.41;693253;28;1717;-77
2022/04/03 00:05:43;;;;;;;6.03;3.87;;;;;;;0.27;85.50;101331.59;695883;28;1385;-77
2022/04/03 00:06:05;;;;;;;5.80;3.70;;;;;;;0.27;85.41;101329.88;692822;28;1333;-77
2022/04/03 00:06:25;;;;;;;5.57;3.60;;;;;;;0.28;86.49;101335.94;697054;28;1669;-77
2022/04/03 00:06:46;;;;;;;6.20;3.87;;;;;;;0.28;85.83;101333.34;696366;28;1422;-77
2022/04/03 00:07:06;;;;;;;5.43;3.53;;;;;;;0.27;85.08;101335.03;690940;28;4369;-77
2022/04/03 00:07:26;;;;;;;5.80;3.60;;;;;;;0.27;85.86;101337.59;693669;28;1370;-77
2022/04/03 00:07:47;;;;;;;6.43;3.85;;;;;;;0.27;86.13;101335.03;694083;28;1275;-77
2022/04/03 00:08:08;;;;;;;6.90;4.03;;;;;;;0.26;84.34;101338.41;695769;28;1001;-77
2022/04/03 00:08:31;;;;;;;6.45;3.80;;;;;;;0.26;84.14;101338.41;690730;28;1230;-77
2022/04/03 00:08:51;;;;;;;6.50;3.85;;;;;;;0.27;86.08;101335.03;694021;28;1625;-77
2022/04/03 00:09:11;;;;;;;6.28;3.90;;;;;;;0.27;84.92;101336.72;696620;28;1906;-77
2022/04/03 00:09:33;;;;;;;6.43;3.73;;;;;;;0.26;85.19;101337.53;695939;28;1207;-77
2022/04/03 00:09:53;;;;;;;8.48;3.60;;;;;;;0.25;85.38;101341.78;694867;28;1447;-77
2022/04/03 00:10:14;;;;;;;7.83;3.83;;;;;;;0.26;85.81;101340.09;697058;28;4230;-77
2022/04/03 00:10:36;;;;;;;5.88;3.85;;;;;;;0.25;85.52;101336.66;699336;28;1569;-77
2022/04/03 00:10:56;;;;;;;6.22;3.70;;;;;;;0.26;87.26;101343.53;696651;28;949;-77
2022/04/03 00:11:16;;;;;;;6.97;4.10;;;;;;;0.26;85.91;101343.53;697372;28;1691;-77
2022/04/03 00:11:37;;;;;;;7.15;3.88;;;;;;;0.26;85.03;101343.53;694166;28;1522;-77
2022/04/03 00:11:57;;;;;;;6.47;3.70;;;;;;;0.26;85.92;101338.41;697842;28;1669;-77
2022/04/03 00:12:18;;;;;;;6.70;3.90;;;;;;;0.26;85.28;101342.66;697415;28;1472;-77
2022/04/03 00:12:40;;;;;;;6.72;3.70;;;;;;;0.25;87.07;101339.22;692450;28;1357;-77
2022/04/03 00:13:02;;;;;;;6.32;3.78;;;;;;;0.25;85.67;101334.09;694437;28;5334;-77
2022/04/03 00:13:22;;;;;;;5.95;3.80;;;;;;;0.26;85.44;101343.53;692284;28;1417;-77
2022/04/03 00:13:43;;;;;;;5.97;3.83;;;;;;;0.25;84.79;101339.22;692507;28;1392;-77
2022/04/03 00:14:04;;;;;;;5.97;3.80;;;;;;;0.24;84.60;101340.03;694165;28;1671;-79
2022/04/03 00:14:24;;;;;;;6.88;3.85;;;;;;;0.24;84.65;101337.47;695511;28;1611;-77
2022/04/03 00:14:45;;;;;;;6.17;3.77;;;;;;;0.24;84.14;101341.72;699151;28;1081;-77
2022/04/03 00:15:05;;;;;;;5.67;3.70;;;;;;;0.24;84.52;101339.16;700364;27;1442;-77
2022/04/03 00:15:25;;;;;;;5.80;3.60;;;;;;;0.23;85.14;101333.09;705265;27;956;-77
2022/04/03 00:15:46;;;;;;;5.50;3.40;;;;;;;0.24;84.77;101340.03;704744;27;971;-77
2022/04/03 00:16:06;;;;;;;6.63;3.65;;;;;;;0.24;84.77;101336.59;701456;27;4245;-77
2022/04/03 00:16:26;;;;;;;6.60;3.83;;;;;;;0.25;86.49;101340.91;698502;28;3516;-77
2022/04/03 00:16:47;;;;;;;5.28;3.78;;;;;;;0.24;85.94;101337.47;698375;28;950;-77
2022/04/03 00:17:07;;;;;;;5.53;3.77;;;;;;;0.22;85.01;101341.63;698545;28;1421;-77
2022/04/03 00:17:28;;;;;;;5.78;3.55;;;;;;;0.23;83.69;101342.53;699405;28;1578;-77
2022/04/03 00:17:48;;;;;;;6.00;3.67;;;;;;;0.24;82.37;101339.16;698802;28;993;-76
2022/04/03 00:18:09;;;;;;;7.20;4.05;;;;;;;0.24;82.41;101345.16;696314;28;1382;-77
2022/04/03 00:18:29;;;;;;;6.22;3.88;;;;;;;0.25;82.51;101344.38;702151;28;1342;-77
2022/04/03 00:18:50;;;;;;;5.50;3.60;;;;;;;0.26;82.81;101340.09;695792;28;1159;-77
2022/04/03 00:19:11;;;;;;;5.78;3.55;;;;;;;0.28;83.16;101343.63;695725;28;4375;-77
2022/04/03 00:19:31;;;;;;;6.30;3.85;;;;;;;0.27;83.62;101342.75;698135;28;1327;-77
2022/04/03 00:19:52;;;;;;;6.07;3.67;;;;;;;0.29;83.87;101343.72;693273;28;1145;-77
2022/04/03 00:20:13;;;;;;;6.45;3.72;;;;;;;0.29;84.75;101337.66;695684;28;1472;-77
2022/04/03 00:20:35;;;;;;;5.63;3.50;;;;;;;0.29;83.13;101336.00;698865;28;1436;-77
2022/04/03 00:20:56;;;;;;;5.75;3.70;;;;;;;0.31;82.40;101336.06;695235;28;1252;-77
2022/04/03 00:21:18;;;;;;;6.43;3.77;;;;;;;0.32;84.04;101332.69;697718;28;1193;-77
2022/04/03 00:21:39;;;;;;;6.05;3.92;;;;;;;0.31;84.23;101338.63;689974;28;1238;-77
2022/04/03 00:22:03;;;;;;;6.53;3.60;;;;;;;0.30;84.33;101335.16;693545;28;4495;-77
2022/04/03 00:22:24;;;;;;;6.25;3.50;;;;;;;0.30;83.87;101335.16;691772;28;1435;-77
2022/04/03 00:22:48;;;;;;;5.45;3.80;;;;;;;0.30;86.25;101337.72;692001;28;1057;-77
2022/04/03 00:23:09;;;;;;;5.80;4.00;;;;;;;0.29;85.66;101336.00;693606;28;1556;-77
2022/04/03 00:23:30;;;;;;;5.65;3.80;;;;;;;0.30;85.51;101342.00;693127;28;1411;-77
2022/04/03 00:23:50;;;;;;;5.75;3.78;;;;;;;0.27;85.53;101337.59;690004;28;1237;-77
2022/04/03 00:24:10;;;;;;;6.00;3.90;;;;;;;0.27;84.27;101329.88;692765;28;1527;-77
2022/04/03 00:24:31;;;;;;;6.20;3.70;;;;;;;0.29;84.26;101338.56;692462;28;1389;-77
2022/04/03 00:24:52;;;;;;;6.83;3.53;;;;;;;0.28;84.98;101329.06;691113;28;1061;-77
2022/04/03 00:25:13;;;;;;;6.00;3.50;;;;;;;0.28;85.11;101334.22;688751;28;4515;-77
2022/04/03 00:25:34;;;;;;;5.47;3.67;;;;;;;0.28;85.22;101334.22;690225;28;1765;-77
2022/04/03 00:25:54;;;;;;;6.15;4.00;;;;;;;0.29;85.48;101335.09;693698;28;1599;-77
2022/04/03 00:26:15;;;;;;;6.40;3.63;;;;;;;0.29;85.85;101338.56;696066;28;1226;-77
2022/04/03 00:26:35;;;;;;;5.77;3.83;;;;;;;0.29;86.60;101337.66;697610;28;1405;-77
2022/04/03 00:26:56;;;;;;;5.70;4.20;;;;;;;0.29;86.97;101329.94;698357;28;1343;-77
2022/04/03 00:27:16;;;;;;;6.23;4.37;;;;;;;0.29;86.45;101336.00;699087;28;1243;-77
2022/04/03 00:27:36;;;;;;;6.38;3.78;;;;;;;0.30;86.06;101337.72;695845;28;1427;-77
2022/04/03 00:27:57;;;;;;;5.67;3.97;;;;;;;0.31;85.57;101330.91;696867;28;4496;-77
2022/04/03 00:28:20;;;;;;;7.05;4.30;;;;;;;0.31;87.40;101333.50;696338;28;1411;-78
2022/04/03 00:28:42;;;;;;;6.70;3.95;;;;;;;0.30;86.31;101334.28;696260;28;983;-77
2022/04/03 00:29:02;;;;;;;5.63;3.70;;;;;;;0.29;85.79;101333.41;697880;28;949;-77
2022/04/03 00:29:23;;;;;;;5.33;3.60;;;;;;;0.30;87.98;101335.16;698507;28;1946;-77
2022/04/03 00:29:44;;;;;;;6.13;3.90;;;;;;;0.30;88.38;101349.72;697901;28;1257;-77
2022/04/03 00:30:05;;;;;;;6.22;3.88;;;;;;;0.29;84.75;101337.66;692209;28;1503;-76
2022/04/03 00:30:26;;;;;;;5.95;3.70;;;;;;;0.28;83.83;101341.94;691843;28;1552;-77
2022/04/03 00:30:47;;;;;;;6.00;3.67;;;;;;;0.29;83.80;101336.00;689177;28;1132;-76
2022/04/03 00:31:07;;;;;;;5.55;3.60;;;;;;;0.29;84.13;101328.28;688187;28;5721;-76
2022/04/03 00:31:28;;;;;;;5.30;3.70;;;;;;;0.30;84.08;101334.28;688944;28;1342;-76
2022/04/03 00:31:48;;;;;;;6.73;3.90;;;;;;;0.29;84.53;101330.84;691995;28;1203;-77
2022/04/03 00:32:10;;;;;;;6.13;3.78;;;;;;;0.29;84.63;101327.38;694309;28;1005;-77
2022/04/03 00:32:31;;;;;;;6.22;3.83;;;;;;;0.29;83.87;101337.66;696054;28;1345;-76
2022/04/03 00:32:52;;;;;;;7.65;3.70;;;;;;;0.29;84.21;101329.94;695826;28;1472;-76
2022/04/03 00:33:13;;;;;;;7.28;4.10;;;;;;;0.29;84.57;101330.84;697789;28;1551;-76
2022/04/03 00:33:33;;;;;;;7.07;3.80;;;;;;;0.28;85.27;101334.22;697343;28;1355;-76
2022/04/03 00:33:53;;;;;;;6.93;3.73;;;;;;;0.29;84.55;101329.94;693050;28;1655;-76
2022/04/03 00:34:14;;;;;;;6.22;3.92;;;;;;;0.29;83.98;101338.56;693070;28;4437;-76
2022/04/03 00:34:34;;;;;;;6.37;3.70;;;;;;;0.30;84.08;101340.31;694098;28;1422;-77
2022/04/03 00:34:55;;;;;;;5.82;3.70;;;;;;;0.29;84.25;101336.00;697071;28;1371;-76
2022/04/03 00:35:16;;;;;;;5.67;3.77;;;;;;;0.30;84.79;101339.44;701091;28;1003;-78
2022/04/03 00:35:36;;;;;;;6.50;4.03;;;;;;;0.28;86.55;101331.66;701735;28;1560;-77
2022/04/03 00:35:57;;;;;;;6.60;4.00;;;;;;;0.30;87.48;101334.28;701722;28;1840;-76
2022/04/03 00:36:17;;;;;;;5.68;3.75;;;;;;;0.30;86.99;101332.59;700013;28;920;-76
2022/04/03 00:36:37;;;;;;;6.67;3.87;;;;;;;0.29;86.33;101335.09;696481;28;1637;-76
2022/04/03 00:36:58;;;;;;;6.40;3.77;;;;;;;0.29;86.82;101333.41;692742;28;4536;-76
2022/04/03 00:37:18;;;;;;;6.18;3.80;;;;;;;0.29;85.99;101327.38;693465;28;1448;-76
2022/04/03 00:37:38;;;;;;;6.03;3.90;;;;;;;0.29;87.23;101340.22;690318;28;1526;-76
2022/04/03 00:37:59;;;;;;;6.13;3.85;;;;;;;0.29;85.94;101343.72;690870;28;1321;-76
2022/04/03 00:38:19;;;;;;;5.40;3.60;;;;;;;0.28;86.04;101339.38;691218;28;1161;-76
2022/04/03 00:38:40;;;;;;;5.90;3.60;;;;;;;0.28;85.18;101335.94;694468;28;930;-77
2022/04/03 00:39:00;;;;;;;6.47;3.77;;;;;;;0.28;84.61;101335.94;695483;28;4886;-76
2022/04/03 00:39:21;;;;;;;5.88;3.75;;;;;;;0.29;84.67;101332.53;691022;28;1588;-76
2022/04/03 00:39:42;;;;;;;6.10;3.80;;;;;;;0.28;83.21;101330.78;692276;28;1595;-76
2022/04/03 00:40:04;;;;;;;6.80;3.90;;;;;;;0.29;82.70;101330.84;690039;28;4277;-76
2022/04/03 00:40:26;;;;;;;6.13;3.70;;;;;;;0.31;82.59;101336.06;688539;28;1500;-76
2022/04/03 00:40:47;;;;;;;6.03;3.72;;;;;;;0.33;82.16;101332.75;690157;28;1334;-76
2022/04/03 00:41:08;;;;;;;6.63;3.67;;;;;;;0.33;82.90;101334.44;690352;28;1044;-77
2022/04/03 00:41:28;;;;;;;6.65;3.78;;;;;;;0.34;81.99;101343.91;689332;28;1388;-76
2022/04/03 00:41:49;;;;;;;5.43;3.60;;;;;;;0.34;82.15;101341.34;690613;28;1138;-76
2022/04/03 00:42:09;;;;;;;6.00;3.75;;;;;;;0.34;82.27;101331.94;690481;28;929;-76
2022/04/03 00:42:33;;;;;;;5.43;3.60;;;;;;;0.37;82.82;101335.47;691999;28;1134;-76
2022/04/03 00:42:54;;;;;;;5.28;3.63;;;;;;;0.37;82.55;101331.19;697378;28;1100;-76
2022/04/03 00:43:15;;;;;;;5.67;3.60;;;;;;;0.38;81.78;101347.53;695162;28;5023;-77
2022/04/03 00:43:35;;;;;;;5.63;3.70;;;;;;;0.37;81.87;101335.47;699257;28;975;-76
2022/04/03 00:43:58;;;;;;;6.28;3.90;;;;;;;0.38;82.18;101332.97;700173;28;1727;-76
2022/04/03 00:44:18;;;;;;;7.07;3.90;;;;;;;0.39;84.44;101332.16;696867;28;2180;-76
2022/04/03 00:44:39;;;;;;;6.90;3.97;;;;;;;0.40;85.15;101326.22;694084;28;1659;-76
2022/04/03 00:44:59;;;;;;;6.30;3.90;;;;;;;0.38;84.73;101335.53;691936;28;1286;-76
2022/04/03 00:45:20;;;;;;;5.73;3.50;;;;;;;0.38;83.74;101332.97;694823;28;1429;-76
2022/04/03 00:45:47;;;;;;;6.33;3.73;;;;;;;0.40;83.50;101336.50;693802;28;1122;-77
2022/04/03 00:46:08;;;;;;;6.00;3.88;;;;;;;0.40;83.18;101333.94;691290;28;4443;-76
2022/04/03 00:46:29;;;;;;;5.90;3.70;;;;;;;0.38;84.22;101332.97;697432;28;1397;-76
2022/04/03 00:46:49;;;;;;;6.50;3.75;;;;;;;0.39;86.10;101333.84;690997;28;1275;-76
2022/04/03 00:47:12;;;;;;;6.10;3.70;;;;;;;0.39;83.90;101334.75;691508;28;1348;-76
2022/04/03 00:47:33;;;;;;;6.05;3.60;;;;;;;0.39;83.04;101333.84;692699;28;1345;-76
2022/04/03 00:47:56;;;;;;;6.05;3.50;;;;;;;0.39;82.90;101333.84;695184;28;1636;-76
2022/04/03 00:48:17;;;;;;;7.07;4.00;;;;;;;0.39;84.00;101331.25;696287;28;1457;-76
2022/04/03 00:48:40;;;;;;;6.13;3.95;;;;;;;0.40;84.32;101340.75;697811;28;1094;-76
2022/04/03 00:49:02;;;;;;;5.53;3.80;;;;;;;0.39;82.51;101338.97;695778;28;4294;-76
2022/04/03 00:49:23;;;;;;;5.85;3.72;;;;;;;0.40;81.90;101335.59;697607;28;2003;-76
2022/04/03 00:49:43;;;;;;;7.50;3.60;;;;;;;0.40;81.78;101340.75;699915;28;1687;-76
2022/04/03 00:50:06;;;;;;;8.07;3.88;;;;;;;0.39;82.57;101333.84;695870;28;1368;-76
2022/04/03 00:50:26;;;;;;;7.00;4.07;;;;;;;0.40;83.12;101335.59;694955;28;1316;-76
2022/04/03 00:50:46;;;;;;;6.53;3.73;;;;;;;0.41;83.71;101337.38;692661;28;1302;-76
2022/04/03 00:51:06;;;;;;;6.10;3.70;;;;;;;0.40;83.05;101336.50;695803;28;1485;-76
2022/04/03 00:51:28;;;;;;;5.80;3.58;;;;;;;0.40;83.56;101340.75;695571;28;1378;-76
2022/04/03 00:51:48;;;;;;;5.68;3.65;;;;;;;0.40;84.39;101344.22;692132;28;1413;-76
2022/04/03 00:52:08;;;;;;;7.03;3.80;;;;;;;0.40;82.15;101338.19;696600;28;4463;-76
2022/04/03 00:52:29;;;;;;;6.15;3.70;;;;;;;0.40;81.74;101338.19;695080;28;1400;-76
2022/04/03 00:52:50;;;;;;;5.00;3.50;;;;;;;0.41;81.92;101337.38;694668;28;1666;-76
2022/04/03 00:53:10;;;;;;;5.63;3.63;;;;;;;0.40;83.28;101333.94;693606;28;1211;-76
2022/04/03 00:53:31;;;;;;;5.78;3.90;;;;;;;0.40;82.78;101341.66;694732;28;1447;-76
2022/04/03 00:53:51;;;;;;;5.27;3.70;;;;;;;0.42;82.62;101340.03;696468;28;1150;-76
2022/04/03 00:54:12;;;;;;;6.35;3.65;;;;;;;0.42;82.58;101341.72;695422;28;1344;-78
2022/04/03 00:54:32;;;;;;;6.40;4.00;;;;;;;0.43;82.69;101344.38;697534;28;1253;-76
2022/04/03 00:54:53;;;;;;;5.77;3.73;;;;;;;0.43;84.05;101340.88;695805;28;1459;-77
2022/04/03 00:55:13;;;;;;;5.90;3.70;;;;;;;0.43;85.09;101338.31;695334;28;4352;-77
2022/04/03 00:55:34;;;;;;;5.63;3.80;;;;;;;0.42;84.09;101339.16;696035;28;1325;-76
2022/04/03 00:55:54;;;;;;;5.73;3.80;;;;;;;0.41;84.09;101339.94;696985;28;1361;-76
2022/04/03 00:56:15;;;;;;;5.90;3.80;;;;;;;0.43;84.97;101340.88;698903;28;911;-76
2022/04/03 00:56:36;;;;;;;6.07;3.80;;;;;;;0.42;83.42;101339.16;692347;28;1627;-76
2022/04/03 00:56:56;;;;;;;6.22;3.85;;;;;;;0.43;83.93;101340.88;694725;28;1518;-76
2022/04/03 00:57:20;;;;;;;6.40;4.03;;;;;;;0.42;84.86;101341.72;693110;28;1405;-76
2022/04/03 00:57:43;;;;;;;6.20;4.00;;;;;;;0.42;84.42;101339.16;693710;28;1383;-76
2022/04/03 00:58:03;;;;;;;6.55;3.90;;;;;;;0.42;83.43;101339.16;696960;28;4434;-76
2022/04/03 00:58:23;;;;;;;6.82;3.85;;;;;;;0.43;82.90;101343.47;695539;28;1421;-76
2022/04/03 00:58:44;;;;;;;6.23;3.83;;;;;;;0.42;83.89;101337.44;697896;28;1429;-76
2022/04/03 00:59:04;;;;;;;6.22;3.60;;;;;;;0.44;83.94;101342.66;696262;28;1437;-76
2022/04/03 00:59:25;;;;;;;5.63;3.80;;;;;;;0.44;84.84;101340.09;696933;28;1363;-76
2022/04/03 00:59:46;;;;;;;5.72;3.72;;;;;;;0.44;84.95;101334.94;695434;28;1265;-76
2022/04/03 01:00:07;;;;;;;5.50;3.60;;;;;;;0.43;85.18;101334.06;696073;28;1727;-76
2022/04/03 01:00:27;;;;;;;6.30;3.60;;;;;;;0.43;83.24;101340.88;693803;28;1408;-76
2022/04/03 01:00:48;;;;;;;5.50;3.33;;;;;;;0.43;83.63;101336.66;693866;28;1504;-76
2022/04/03 01:01:09;;;;;;;6.00;3.60;;;;;;;0.45;83.09;101334.16;691865;28;4324;-76
2022/04/03 01:01:29;;;;;;;5.82;3.60;;;;;;;0.45;82.42;101332.44;694592;28;1505;-76
2022/04/03 01:01:49;;;;;;;5.73;3.67;;;;;;;0.46;81.42;101335.91;693701;28;1039;-76
2022/04/03 01:02:10;;;;;;;5.77;3.73;;;;;;;0.46;81.31;101339.34;693611;28;1374;-77
2022/04/03 01:02:31;;;;;;;6.22;3.85;;;;;;;0.44;81.05;101332.38;693013;28;1550;-76
2022/04/03 01:02:51;;;;;;;6.13;3.80;;;;;;;0.45;81.90;101329.88;694169;28;1355;-76
2022/04/03 01:03:12;;;;;;;5.87;3.60;;;;;;;0.45;82.53;101326.44;697160;28;1457;-76
2022/04/03 01:03:32;;;;;;;6.68;3.67;;;;;;;0.45;81.45;101334.16;697582;28;1517;-76
2022/04/03 01:03:52;;;;;;;6.00;3.63;;;;;;;0.45;82.10;101339.28;694276;28;1769;-77
2022/04/03 01:04:13;;;;;;;5.50;3.58;;;;;;;0.46;81.94;101335.91;692963;28;4325;-76
2022/04/03 01:04:36;;;;;;;5.90;3.50;;;;;;;0.46;81.98;101330.78;692840;28;1222;-76
2022/04/03 01:04:57;;;;;;;5.63;3.80;;;;;;;0.46;82.40;101334.22;689973;28;1531;-76
2022/04/03 01:05:18;;;;;;;5.95;3.90;;;;;;;0.46;82.54;101331.63;690184;28;1529;-76
2022/04/03 01:05:38;;;;;;;6.67;3.93;;;;;;;0.45;81.49;101335.00;690439;28;1498;-77
2022/04/03 01:06:00;;;;;;;6.15;3.50;;;;;;;0.45;81.03;101335.00;692728;28;1381;-76
2022/04/03 01:06:20;;;;;;;6.53;3.50;;;;;;;0.47;81.75;101329.94;693580;28;911;-77
2022/04/03 01:06:41;;;;;;;6.70;3.60;;;;;;;0.46;82.86;101331.63;695184;28;1146;-76
2022/04/03 01:07:01;;;;;;;5.50;3.77;;;;;;;0.46;84.79;101328.19;694570;28;4286;-77
2022/04/03 01:07:21;;;;;;;6.10;3.72;;;;;;;0.46;83.65;101333.34;691232;28;1497;-76
2022/04/03 01:07:43;;;;;;;6.37;3.40;;;;;;;0.46;83.30;101334.22;690311;28;1596;-76
2022/04/03 01:08:04;;;;;;;6.65;3.63;;;;;;;0.45;82.18;101334.16;690417;28;1444;-76
2022/04/03 01:08:26;;;;;;;6.18;3.70;;;;;;;0.45;82.51;101341.88;694074;28;1515;-76
2022/04/03 01:08:46;;;;;;;5.60;3.60;;;;;;;0.44;82.62;101329.81;694544;28;1538;-76
2022/04/03 01:09:07;;;;;;;5.97;4.00;;;;;;;0.44;82.87;101334.94;692923;28;1356;-76
2022/04/03 01:09:28;;;;;;;6.68;4.10;;;;;;;0.44;82.04;101337.50;696849;28;1336;-76
2022/04/03 01:09:49;;;;;;;5.85;3.63;;;;;;;0.43;81.31;101334.06;695005;28;1694;-76
2022/04/03 01:10:10;;;;;;;6.65;3.83;;;;;;;0.44;81.31;101330.66;695972;28;4297;-76
2022/04/03 01:10:30;;;;;;;6.40;4.00;;;;;;;0.45;83.02;101336.72;690387;28;1519;-77
2022/04/03 01:10:51;;;;;;;6.00;3.60;;;;;;;0.45;82.65;101331.56;692784;28;1438;-76
2022/04/03 01:11:13;;;;;;;5.53;3.80;;;;;;;0.45;84.65;101342.72;696771;28;1318;-77
2022/04/03 01:11:34;;;;;;;5.65;3.72;;;;;;;0.44;83.48;101329.81;697867;28;1067;-76
2022/04/03 01:11:56;;;;;;;5.43;3.67;;;;;;;0.45;84.97;101331.56;696160;28;1427;-76
2022/04/03 01:12:16;;;;;;;6.35;3.97;;;;;;;0.44;84.50;101337.50;694070;28;1271;-77
2022/04/03 01:12:45;;;;;;;6.03;3.80;;;;;;;0.46;85.62;101335.91;693591;28;1792;-77
2022/04/03 01:13:05;;;;;;;6.18;3.78;;;;;;;0.45;84.69;101331.56;692545;28;4293;-77
2022/04/03 01:13:25;;;;;;;5.87;3.50;;;;;;;0.44;85.32;101337.50;692926;28;961;-76
2022/04/03 01:13:49;;;;;;;5.80;3.47;;;;;;;0.44;85.61;101327.22;689816;28;1494;-77
2022/04/03 01:14:09;;;;;;;6.20;3.60;;;;;;;0.43;84.54;101335.75;692180;28;950;-76
2022/04/03 01:14:34;;;;;;;5.10;3.57;;;;;;;0.42;84.58;101331.44;694599;28;1496;-76
2022/04/03 01:14:54;;;;;;;6.20;3.60;;;;;;;0.40;85.02;101335.59;694778;28;1385;-77
2022/04/03 01:15:16;;;;;;;5.60;3.40;;;;;;;0.39;82.84;101334.75;695798;28;1501;-76
2022/04/03 01:15:36;;;;;;;6.28;3.60;;;;;;;0.40;81.98;101335.59;694112;28;1172;-77
2022/04/03 01:15:59;;;;;;;6.57;3.70;;;;;;;0.39;81.44;101332.16;692752;28;4486;-76
2022/04/03 01:16:19;;;;;;;5.88;3.67;;;;;;;0.40;82.16;101333.03;691400;28;1365;-76
2022/04/03 01:16:40;;;;;;;6.00;3.60;;;;;;;0.42;81.53;101328.88;692960;28;1397;-76
2022/04/03 01:17:01;;;;;;;6.00;3.72;;;;;;;0.42;82.68;101334.00;690456;28;1346;-76
2022/04/03 01:17:21;;;;;;;6.05;3.80;;;;;;;0.43;85.21;101331.50;687072;28;1394;-76
2022/04/03 01:17:43;;;;;;;5.70;3.70;;;;;;;0.43;84.01;101333.19;687951;28;1202;-77
2022/04/03 01:18:03;;;;;;;5.68;3.90;;;;;;;0.44;84.54;101333.25;687930;28;1320;-76
2022/04/03 01:18:24;;;;;;;5.45;3.63;;;;;;;0.45;84.30;101336.72;688453;28;1526;-76
2022/04/03 01:18:45;;;;;;;5.63;3.63;;;;;;;0.44;84.70;101329.81;690982;28;1083;-76
2022/04/03 01:19:05;;;;;;;6.53;3.97;;;;;;;0.43;84.67;101333.19;689787;28;4477;-76
2022/04/03 01:19:25;;;;;;;5.43;3.78;;;;;;;0.43;84.43;101333.19;693181;28;1345;-76
2022/04/03 01:19:46;;;;;;;6.53;3.70;;;;;;;0.44;85.65;101338.38;693156;28;1458;-76
2022/04/03 01:20:07;;;;;;;6.60;3.55;;;;;;;0.42;85.13;101336.59;693530;28;1183;-76
2022/04/03 01:20:28;;;;;;;6.68;3.90;;;;;;;0.42;85.06;101337.44;693758;28;1691;-76
2022/04/03 01:20:49;;;;;;;7.30;4.00;;;;;;;0.43;84.69;101333.19;690522;28;1013;-76
2022/04/03 01:21:10;;;;;;;6.35;3.90;;;;;;;0.43;84.70;101335.75;691098;28;1509;-76
2022/04/03 01:21:30;;;;;;;5.78;3.90;;;;;;;0.40;83.79;101333.94;692133;28;1341;-77
2022/04/03 01:21:51;;;;;;;6.00;3.80;;;;;;;0.40;82.62;101335.59;688755;28;1605;-76
2022/04/03 01:22:12;;;;;;;6.25;3.70;;;;;;;0.39;83.11;101336.41;689007;28;4372;-77
2022/04/03 01:22:33;;;;;;;7.15;3.53;;;;;;;0.41;83.81;101334.81;691943;28;1241;-76
2022/04/03 01:22:54;;;;;;;6.45;3.63;;;;;;;0.42;85.16;101334.00;690131;28;1340;-77
2022/04/03 01:23:15;;;;;;;5.63;3.60;;;;;;;0.42;84.54;101334.00;693178;28;1523;-77
2022/04/03 01:23:35;;;;;;;6.00;3.75;;;;;;;0.38;84.92;101337.25;693751;28;1351;-77
2022/04/03 01:23:56;;;;;;;6.17;4.30;;;;;;;0.38;84.25;101335.53;694207;28;1305;-76
2022/04/03 01:24:20;;;;;;;5.75;3.90;;;;;;;0.37;84.15;101335.47;694231;28;1529;-76
2022/04/03 01:24:44;;;;;;;5.78;3.67;;;;;;;0.38;84.18;101337.25;695663;28;1093;-77
2022/04/03 01:25:05;;;;;;;6.25;3.75;;;;;;;0.37;83.23;101332.91;690672;28;4533;-76
2022/04/03 01:25:25;;;;;;;7.28;4.15;;;;;;;0.37;83.81;101331.19;691570;28;1535;-77
2022/04/03 01:25:46;;;;;;;6.93;4.10;;;;;;;0.37;84.81;101331.19;690618;28;1552;-76
2022/04/03 01:26:06;;;;;;;6.50;3.85;;;;;;;0.37;83.81;101332.91;690396;28;1532;-77
2022/04/03 01:26:29;;;;;;;7.20;3.93;;;;;;;0.36;83.88;101333.69;688389;28;1496;-77
2022/04/03 01:26:50;;;;;;;6.85;3.78;;;;;;;0.36;84.40;101329.47;692966;28;1419;-77
2022/04/03 01:27:11;;;;;;;6.30;3.80;;;;;;;0.37;83.84;101330.31;693528;28;1231;-76
2022/04/03 01:27:31;;;;;;;6.10;3.72;;;;;;;0.38;86.13;101332.09;690491;28;1183;-77
2022/04/03 01:27:51;;;;;;;6.30;3.90;;;;;;;0.37;84.03;101340.63;691991;28;1127;-77
2022/04/03 01:28:12;;;;;;;6.50;3.70;;;;;;;0.37;83.53;101335.47;689964;28;4292;-76
2022/04/03 01:28:32;;;;;;;7.20;4.30;;;;;;;0.36;83.88;101339.75;693597;28;1303;-76
2022/04/03 01:28:53;;;;;;;6.43;4.05;;;;;;;0.36;83.08;101336.28;694475;28;1081;-76
2022/04/03 01:29:15;;;;;;;6.30;3.87;;;;;;;0.35;85.38;101335.41;692807;28;2053;-76
2022/04/03 01:29:35;;;;;;;5.75;3.80;;;;;;;0.32;83.55;101330.13;692058;28;1026;-76
2022/04/03 01:29:57;;;;;;;6.63;3.83;;;;;;;0.33;83.11;101339.56;692470;28;1242;-76
2022/04/03 01:30:17;;;;;;;6.85;3.95;;;;;;;0.34;82.81;101338.78;694566;28;1213;-76
2022/04/03 01:30:38;;;;;;;7.00;4.20;;;;;;;0.33;83.80;101329.28;697466;28;1625;-76
2022/04/03 01:30:58;;;;;;;6.47;3.90;;;;;;;0.34;84.41;101331.94;693581;28;4535;-76
2022/04/03 01:31:19;;;;;;;6.10;3.90;;;;;;;0.33;84.26;101330.19;689884;28;1305;-76
2022/04/03 01:31:39;;;;;;;6.57;3.70;;;;;;;0.34;84.15;101336.19;691511;28;995;-76
2022/04/03 01:32:00;;;;;;;6.33;3.50;;;;;;;0.35;85.49;101327.69;689638;28;1112;-76
2022/04/03 01:32:21;;;;;;;5.90;3.85;;;;;;;0.36;84.95;101333.69;692359;28;1315;-76
2022/04/03 01:32:41;;;;;;;6.18;3.75;;;;;;;0.34;84.74;101334.50;693175;28;1556;-76
2022/04/03 01:33:02;;;;;;;6.00;3.53;;;;;;;0.33;84.20;101331.84;695690;28;1608;-76
2022/04/03 01:33:22;;;;;;;6.47;3.90;;;;;;;0.33;84.09;101335.34;696353;28;956;-76
2022/04/03 01:33:43;;;;;;;6.45;4.07;;;;;;;0.34;86.22;101334.50;696332;28;1702;-76
2022/04/03 01:34:04;;;;;;;6.07;4.10;;;;;;;0.34;84.91;101331.06;690982;28;4336;-76
2022/04/03 01:34:24;;;;;;;6.45;3.75;;;;;;;0.32;85.08;101336.13;696531;28;1365;-76
2022/04/03 01:34:46;;;;;;;6.38;4.00;;;;;;;0.33;85.73;101332.75;698181;28;1238;-76
2022/04/03 01:35:07;;;;;;;6.40;4.03;;;;;;;0.33;85.43;101334.44;694972;28;1528;-76
2022/04/03 01:35:27;;;;;;;6.72;4.07;;;;;;;0.33;85.83;101335.34;693817;28;1003;-78
2022/04/03 01:35:47;;;;;;;7.83;4.03;;;;;;;0.33;85.12;101332.75;691413;28;2254;-76
2022/04/03 01:36:08;;;;;;;6.28;3.83;;;;;;;0.32;84.23;101333.56;689715;28;1472;-76
2022/04/03 01:36:28;;;;;;;6.60;3.53;;;;;;;0.32;83.93;101338.72;687951;28;1039;-76
2022/04/03 01:36:49;;;;;;;6.17;3.77;;;;;;;0.32;84.55;101336.13;691998;28;1210;-76
2022/04/03 01:37:09;;;;;;;5.87;3.80;;;;;;;0.30;83.42;101335.16;694156;28;5395;-76
2022/04/03 01:37:29;;;;;;;5.93;3.88;;;;;;;0.31;83.32;101324.06;693032;28;1122;-76
2022/04/03 01:37:50;;;;;;;5.67;3.93;;;;;;;0.31;83.50;101331.78;693585;28;874;-76
2022/04/03 01:38:10;;;;;;;5.65;3.78;;;;;;;0.30;83.55;101332.59;694919;28;1246;-76
2022/04/03 01:38:31;;;;;;;5.60;3.70;;;;;;;0.30;85.12;101332.59;697003;28;1360;-76
2022/04/03 01:38:51;;;;;;;5.65;3.92;;;;;;;0.31;84.57;101333.50;698405;28;4647;-76
2022/04/03 01:39:12;;;;;;;6.40;3.83;;;;;;;0.30;82.86;101334.28;699409;28;1290;-76
2022/04/03 01:39:32;;;;;;;7.10;3.90;;;;;;;0.30;83.16;101335.16;701777;28;1205;-76
2022/04/03 01:39:53;;;;;;;8.32;4.07;;;;;;;0.29;83.90;101330.84;697518;28;1309;-76
2022/04/03 01:40:14;;;;;;;8.07;4.00;;;;;;;0.30;84.04;101332.59;693290;28;4248;-76
2022/04/03 01:40:35;;;;;;;7.15;3.97;;;;;;;0.29;83.81;101330.84;692998;28;1404;-76
2022/04/03 01:40:56;;;;;;;7.47;3.85;;;;;;;0.30;83.24;101330.03;694855;28;1074;-76